Time;durP1;ratioP1;P1;durP2;ratioP2;P2;SDS_P1;SDS_P2;PMS_P1;PMS_P2;Temp;Humidity;BMP_temperature;BMP_pressure;BME280_temperature;BME280_humidity;BME280_pressure;Samples;Min_cycle;Max_cycle;Signal;HPM_P1;HPM_P2
2022/07/22 00:00:44;;;;;;;7.03;1.30;;;;;;;;;;4962970;28;20117;-62
2022/07/22 00:03:11;;;;;;;3.10;1.05;;;;;;;;;;4969134;28;20051;-63
2022/07/22 00:05:37;;;;;;;6.32;1.63;;;;;;;;;;4961122;28;20070;-64
2022/07/22 00:08:04;;;;;;;5.10;1.33;;;;;;;;;;4968251;28;20059;-63
2022/07/22 00:10:31;;;;;;;3.67;1.00;;;;;;;;;;4959221;28;20055;-62
2022/07/22 00:12:57;;;;;;;4.50;1.50;;;;;;;;;;4965614;28;20139;-62
2022/07/22 00:15:24;;;;;;;5.57;1.45;;;;;;;;;;4967514;28;20082;-63
2022/07/22 00:17:53;;;;;;;8.02;1.30;;;;;;;;;;4962268;28;20117;-63
2022/07/22 00:20:20;;;;;;;7.72;1.27;;;;;;;;;;4980063;28;20070;-62
2022/07/22 00:22:46;;;;;;;2.70;0.90;;;;;;;;;;4961409;28;20082;-62
2022/07/22 00:25:13;;;;;;;9.80;2.72;;;;;;;;;;4969809;28;20050;-63
2022/07/22 00:27:39;;;;;;;4.82;1.40;;;;;;;;;;4960059;28;20061;-62
2022/07/22 00:30:08;;;;;;;3.58;1.10;;;;;;;;;;4980736;28;20046;-63
2022/07/22 00:32:34;;;;;;;4.47;1.20;;;;;;;;;;4980584;28;20054;-63
2022/07/22 00:35:03;;;;;;;3.55;1.00;;;;;;;;;;4986948;28;20066;-62
2022/07/22 00:37:29;;;;;;;2.47;1.00;;;;;;;;;;4984098;28;20089;-62
2022/07/22 00:39:56;;;;;;;4.20;1.00;;;;;;;;;;4981634;28;20078;-63
2022/07/22 00:42:22;;;;;;;2.10;0.90;;;;;;;;;;4981210;28;20077;-63
2022/07/22 00:44:49;;;;;;;4.07;1.08;;;;;;;;;;4987807;28;20054;-63
2022/07/22 00:47:15;;;;;;;4.00;1.10;;;;;;;;;;4974875;28;20081;-62
2022/07/22 00:49:42;;;;;;;4.13;1.00;;;;;;;;;;4987922;28;20054;-63
2022/07/22 00:52:10;;;;;;;5.20;1.13;;;;;;;;;;4982438;28;20097;-63
2022/07/22 00:54:37;;;;;;;5.70;1.33;;;;;;;;;;4988012;28;20065;-63
2022/07/22 00:57:04;;;;;;;2.07;0.83;;;;;;;;;;4985574;28;20126;-63
2022/07/22 00:59:31;;;;;;;2.97;0.90;;;;;;;;;;4984859;28;20060;-62
2022/07/22 01:01:58;;;;;;;5.38;1.05;;;;;;;;;;4981792;28;20124;-62
2022/07/22 01:04:26;;;;;;;7.25;1.35;;;;;;;;;;4980033;28;20488;-63
2022/07/22 01:06:54;;;;;;;2.03;1.08;;;;;;;;;;4986663;28;20062;-63
2022/07/22 01:09:22;;;;;;;9.10;1.33;;;;;;;;;;4979940;28;20054;-62
2022/07/22 01:11:48;;;;;;;2.33;0.93;;;;;;;;;;4985293;28;20116;-62
2022/07/22 01:14:15;;;;;;;6.53;1.02;;;;;;;;;;4977971;28;20046;-62
2022/07/22 01:16:41;;;;;;;4.55;1.13;;;;;;;;;;4986008;28;20100;-62
2022/07/22 01:19:08;;;;;;;2.88;1.13;;;;;;;;;;4979422;28;20073;-62
2022/07/22 01:21:36;;;;;;;7.85;1.48;;;;;;;;;;4986591;28;20093;-62
2022/07/22 01:24:03;;;;;;;3.28;1.10;;;;;;;;;;4980196;28;20054;-62
2022/07/22 01:26:30;;;;;;;5.18;1.42;;;;;;;;;;4980626;28;20061;-63
2022/07/22 01:28:56;;;;;;;4.53;1.13;;;;;;;;;;4979783;28;20145;-62
2022/07/22 01:31:23;;;;;;;5.07;1.08;;;;;;;;;;4985476;28;20062;-62
2022/07/22 01:33:49;;;;;;;3.05;1.17;;;;;;;;;;4982064;28;20062;-62
2022/07/22 01:36:16;;;;;;;7.40;1.15;;;;;;;;;;4982950;28;20175;-62
2022/07/22 01:38:44;;;;;;;2.40;0.80;;;;;;;;;;4985101;28;20054;-63
2022/07/22 01:41:11;;;;;;;3.33;0.98;;;;;;;;;;4983256;28;20058;-63
2022/07/22 01:43:38;;;;;;;5.28;1.08;;;;;;;;;;4982548;28;20054;-62
2022/07/22 01:46:05;;;;;;;4.15;1.08;;;;;;;;;;4979464;28;20082;-63
2022/07/22 01:48:32;;;;;;;7.30;1.40;;;;;;;;;;4986023;28;20081;-63
2022/07/22 01:50:59;;;;;;;9.27;1.38;;;;;;;;;;4979281;28;20065;-63
2022/07/22 01:53:25;;;;;;;5.97;1.27;;;;;;;;;;4982798;28;20057;-63
2022/07/22 01:55:54;;;;;;;5.95;1.27;;;;;;;;;;4975421;28;20062;-63
2022/07/22 01:58:21;;;;;;;2.97;0.80;;;;;;;;;;4984821;28;20050;-64
2022/07/22 02:00:49;;;;;;;5.07;1.00;;;;;;;;;;4988962;28;20060;-63
2022/07/22 02:03:15;;;;;;;10.60;1.30;;;;;;;;;;4988155;28;20101;-63
2022/07/22 02:05:42;;;;;;;5.40;1.10;;;;;;;;;;4989491;28;20046;-63
2022/07/22 02:08:13;;;;;;;3.35;0.95;;;;;;;;;;5006779;28;20073;-62
2022/07/22 02:10:40;;;;;;;3.67;1.05;;;;;;;;;;4970728;28;20132;-63
2022/07/22 02:13:08;;;;;;;4.13;1.05;;;;;;;;;;4987781;28;20082;-63
2022/07/22 02:15:34;;;;;;;4.22;1.15;;;;;;;;;;4984979;28;20046;-63
2022/07/22 02:18:01;;;;;;;1.70;0.90;;;;;;;;;;5007754;28;20174;-63
2022/07/22 02:20:28;;;;;;;2.08;0.90;;;;;;;;;;4995237;28;20065;-62
2022/07/22 02:22:54;;;;;;;2.53;1.02;;;;;;;;;;4989207;28;20053;-63
2022/07/22 02:25:21;;;;;;;2.25;0.85;;;;;;;;;;4985961;28;20058;-62
2022/07/22 02:27:48;;;;;;;2.47;1.00;;;;;;;;;;4980996;28;20057;-63
2022/07/22 02:30:15;;;;;;;3.20;0.90;;;;;;;;;;4987042;28;20054;-63
2022/07/22 02:32:42;;;;;;;2.17;0.90;;;;;;;;;;4981259;28;20104;-62
2022/07/22 02:35:09;;;;;;;3.10;0.70;;;;;;;;;;4987634;28;20050;-62
2022/07/22 02:37:37;;;;;;;4.30;1.00;;;;;;;;;;4981966;28;20062;-62
2022/07/22 02:40:04;;;;;;;1.77;0.73;;;;;;;;;;4987644;28;20050;-62
2022/07/22 02:42:30;;;;;;;6.43;1.25;;;;;;;;;;4981552;28;20101;-63
2022/07/22 02:44:57;;;;;;;2.80;0.93;;;;;;;;;;4987655;28;20046;-62
2022/07/22 02:47:25;;;;;;;4.47;1.13;;;;;;;;;;4980865;28;20141;-62
2022/07/22 02:49:51;;;;;;;3.55;1.00;;;;;;;;;;4987194;28;20054;-62
2022/07/22 02:52:18;;;;;;;2.15;0.80;;;;;;;;;;4976426;28;20124;-62
2022/07/22 02:54:44;;;;;;;1.17;0.80;;;;;;;;;;4967916;28;20059;-62
2022/07/22 02:57:11;;;;;;;1.52;0.90;;;;;;;;;;4968287;28;20050;-62
2022/07/22 02:59:37;;;;;;;2.58;0.85;;;;;;;;;;5006893;28;20050;-62
2022/07/22 03:02:04;;;;;;;2.47;0.80;;;;;;;;;;5002484;28;20080;-62
2022/07/22 03:04:32;;;;;;;3.03;0.95;;;;;;;;;;4967951;28;20054;-62
2022/07/22 03:06:59;;;;;;;3.75;0.90;;;;;;;;;;4972002;28;20573;-62
2022/07/22 03:09:25;;;;;;;2.22;0.85;;;;;;;;;;5000501;28;20068;-62
2022/07/22 03:11:52;;;;;;;4.85;1.00;;;;;;;;;;5012154;28;20058;-62
2022/07/22 03:14:19;;;;;;;2.60;0.70;;;;;;;;;;4989908;28;20058;-63
2022/07/22 03:16:45;;;;;;;2.53;1.00;;;;;;;;;;4993268;28;20050;-63
2022/07/22 03:19:12;;;;;;;4.57;1.20;;;;;;;;;;4973792;28;20090;-63
2022/07/22 03:21:40;;;;;;;0.80;0.63;;;;;;;;;;4989143;28;20133;-63
2022/07/22 03:24:07;;;;;;;4.68;0.95;;;;;;;;;;4985302;28;20055;-62
2022/07/22 03:26:33;;;;;;;4.03;0.90;;;;;;;;;;4991104;28;20061;-62
2022/07/22 03:29:00;;;;;;;3.90;0.93;;;;;;;;;;4984991;28;20070;-62
2022/07/22 03:31:27;;;;;;;2.10;0.70;;;;;;;;;;4990999;28;20054;-63
2022/07/22 03:33:53;;;;;;;1.25;0.77;;;;;;;;;;4990412;28;20127;-62
2022/07/22 03:36:20;;;;;;;1.85;0.77;;;;;;;;;;5009352;28;20128;-62
2022/07/22 03:38:48;;;;;;;4.57;1.20;;;;;;;;;;5001239;28;20111;-62
2022/07/22 03:41:14;;;;;;;1.73;1.00;;;;;;;;;;4990559;28;20112;-62
2022/07/22 03:43:41;;;;;;;2.00;0.63;;;;;;;;;;4987049;28;20174;-62
2022/07/22 03:46:08;;;;;;;2.10;0.80;;;;;;;;;;5010149;28;20042;-62
2022/07/22 03:48:34;;;;;;;1.92;0.75;;;;;;;;;;5010434;28;20069;-62
2022/07/22 03:51:01;;;;;;;6.38;1.10;;;;;;;;;;4985129;28;20057;-62
2022/07/22 03:53:27;;;;;;;3.42;0.85;;;;;;;;;;4991846;28;20050;-63
2022/07/22 03:55:55;;;;;;;1.85;0.90;;;;;;;;;;4985254;28;20050;-62
2022/07/22 03:58:22;;;;;;;1.25;0.57;;;;;;;;;;4989922;28;20054;-63
2022/07/22 04:00:49;;;;;;;2.70;0.80;;;;;;;;;;4972042;28;20078;-62
2022/07/22 04:03:15;;;;;;;5.47;1.10;;;;;;;;;;4970892;28;20055;-63
2022/07/22 04:05:42;;;;;;;3.28;1.15;;;;;;;;;;4966881;28;20100;-62
2022/07/22 04:08:10;;;;;;;2.20;1.10;;;;;;;;;;4971020;28;20074;-63
2022/07/22 04:10:36;;;;;;;4.65;1.45;;;;;;;;;;4973122;28;20057;-62
2022/07/22 04:13:04;;;;;;;2.50;0.85;;;;;;;;;;4990016;28;20046;-63
2022/07/22 04:15:31;;;;;;;2.90;0.70;;;;;;;;;;4988227;28;20093;-63
2022/07/22 04:17:58;;;;;;;0.77;0.70;;;;;;;;;;4993002;28;20061;-63
2022/07/22 04:20:24;;;;;;;1.02;0.63;;;;;;;;;;4998628;28;20053;-62
2022/07/22 04:22:50;;;;;;;3.72;0.90;;;;;;;;;;5009246;28;20050;-62
2022/07/22 04:25:17;;;;;;;3.88;0.73;;;;;;;;;;4988418;28;20109;-62
2022/07/22 04:27:44;;;;;;;2.00;0.90;;;;;;;;;;4990102;28;20053;-62
2022/07/22 04:30:12;;;;;;;1.60;0.77;;;;;;;;;;4989460;28;20145;-62
2022/07/22 04:32:39;;;;;;;1.17;0.80;;;;;;;;;;4967888;28;20116;-62
2022/07/22 04:35:06;;;;;;;2.85;0.70;;;;;;;;;;5009139;28;20046;-62
2022/07/22 04:37:33;;;;;;;1.58;0.90;;;;;;;;;;4972960;28;20070;-62
2022/07/22 04:39:59;;;;;;;1.67;0.80;;;;;;;;;;4969877;28;20062;-62
2022/07/22 04:42:26;;;;;;;3.08;1.08;;;;;;;;;;4989476;28;20120;-63
2022/07/22 04:44:52;;;;;;;4.47;1.13;;;;;;;;;;5001285;28;20042;-63
2022/07/22 04:47:20;;;;;;;1.83;0.80;;;;;;;;;;4993470;28;20054;-62
2022/07/22 04:49:47;;;;;;;1.65;0.80;;;;;;;;;;5009784;28;20108;-62
2022/07/22 04:52:13;;;;;;;3.20;0.93;;;;;;;;;;4988352;28;20125;-62
2022/07/22 04:54:40;;;;;;;4.82;1.27;;;;;;;;;;4970429;28;20055;-62
2022/07/22 04:57:07;;;;;;;4.55;1.38;;;;;;;;;;4969325;28;20062;-62
2022/07/22 04:59:33;;;;;;;6.18;1.13;;;;;;;;;;4988619;28;20085;-62
2022/07/22 05:02:00;;;;;;;6.03;1.23;;;;;;;;;;4985200;28;20065;-62
2022/07/22 05:04:27;;;;;;;1.10;0.80;;;;;;;;;;5008446;28;20096;-62
2022/07/22 05:06:56;;;;;;;5.70;1.08;;;;;;;;;;5003966;28;20147;-62
2022/07/22 05:09:23;;;;;;;1.58;0.82;;;;;;;;;;4969241;28;20046;-62
2022/07/22 05:11:49;;;;;;;3.08;0.90;;;;;;;;;;4969497;28;20065;-62
2022/07/22 05:14:16;;;;;;;3.40;1.20;;;;;;;;;;4964273;28;20055;-62
2022/07/22 05:16:42;;;;;;;4.18;1.40;;;;;;;;;;4969628;28;20140;-62
2022/07/22 05:19:09;;;;;;;0.75;0.63;;;;;;;;;;4964861;28;20137;-63
2022/07/22 05:21:37;;;;;;;2.17;0.80;;;;;;;;;;4985919;28;20042;-62
2022/07/22 05:24:03;;;;;;;2.85;1.15;;;;;;;;;;4994307;28;20053;-62
2022/07/22 05:26:32;;;;;;;6.47;1.58;;;;;;;;;;5008635;28;20066;-62
2022/07/22 05:28:58;;;;;;;;;;;;;;;;;;4990523;28;20324;-62
2022/07/22 05:31:25;;;;;;;1.52;0.75;;;;;;;;;;4988501;28;20027;-62
2022/07/22 05:33:51;;;;;;;3.03;0.77;;;;;;;;;;4971655;28;20059;-62
2022/07/22 05:36:18;;;;;;;2.08;0.80;;;;;;;;;;4969628;28;20062;-62
2022/07/22 05:38:47;;;;;;;6.30;1.00;;;;;;;;;;4965901;28;20046;-62
2022/07/22 05:41:13;;;;;;;6.13;1.23;;;;;;;;;;5008713;28;20038;-62
2022/07/22 05:43:40;;;;;;;2.97;0.80;;;;;;;;;;5002649;28;20046;-62
2022/07/22 05:46:07;;;;;;;3.58;0.90;;;;;;;;;;5010156;28;20053;-62
2022/07/22 05:48:34;;;;;;;5.50;1.27;;;;;;;;;;5002816;28;20126;-62
2022/07/22 05:51:00;;;;;;;3.92;1.40;;;;;;;;;;4989689;28;20080;-62
2022/07/22 05:53:27;;;;;;;4.05;1.23;;;;;;;;;;4988646;28;20039;-62
2022/07/22 05:55:55;;;;;;;4.63;1.52;;;;;;;;;;4981915;28;20133;-62
2022/07/22 05:58:22;;;;;;;1.20;0.85;;;;;;;;;;4988578;28;20062;-62
2022/07/22 06:00:49;;;;;;;1.95;1.08;;;;;;;;;;4982099;28;20058;-62
2022/07/22 06:03:15;;;;;;;3.88;1.40;;;;;;;;;;4988422;28;20065;-62
2022/07/22 06:05:42;;;;;;;1.98;0.90;;;;;;;;;;4982445;28;20050;-63
2022/07/22 06:08:08;;;;;;;2.33;1.15;;;;;;;;;;4988506;28;20058;-62
2022/07/22 06:10:35;;;;;;;2.35;0.95;;;;;;;;;;4972102;28;20050;-62
2022/07/22 06:13:03;;;;;;;2.40;0.95;;;;;;;;;;4968401;28;20066;-62
2022/07/22 06:15:29;;;;;;;4.00;1.40;;;;;;;;;;4971864;28;20076;-62
2022/07/22 06:17:56;;;;;;;1.23;0.70;;;;;;;;;;4987968;28;20058;-62
2022/07/22 06:20:22;;;;;;;3.28;1.20;;;;;;;;;;4977160;28;20050;-62
2022/07/22 06:22:49;;;;;;;3.92;1.00;;;;;;;;;;4968025;28;20082;-62
2022/07/22 06:25:15;;;;;;;4.95;1.00;;;;;;;;;;4968373;28;20054;-63
2022/07/22 06:27:42;;;;;;;1.23;0.88;;;;;;;;;;5007196;28;20058;-63
2022/07/22 06:30:11;;;;;;;3.88;1.00;;;;;;;;;;5002057;28;20049;-62
2022/07/22 06:32:37;;;;;;;4.15;0.90;;;;;;;;;;4987684;28;20124;-62
2022/07/22 06:35:04;;;;;;;2.78;0.77;;;;;;;;;;5007640;28;20069;-62
2022/07/22 06:37:31;;;;;;;2.33;1.05;;;;;;;;;;4982631;28;20062;-62
2022/07/22 06:39:57;;;;;;;4.55;1.60;;;;;;;;;;4987012;28;20055;-62
2022/07/22 06:42:24;;;;;;;6.07;1.42;;;;;;;;;;4970961;28;20157;-62
2022/07/22 06:44:51;;;;;;;4.15;1.00;;;;;;;;;;4985798;28;20198;-63
2022/07/22 06:47:20;;;;;;;2.00;1.10;;;;;;;;;;4978151;28;20120;-63
2022/07/22 06:49:46;;;;;;;6.18;1.17;;;;;;;;;;4984641;28;20058;-63
2022/07/22 06:52:14;;;;;;;5.63;1.63;;;;;;;;;;4979584;28;20050;-62
2022/07/22 06:54:40;;;;;;;2.80;1.50;;;;;;;;;;4984497;28;20278;-63
2022/07/22 06:57:07;;;;;;;5.38;1.42;;;;;;;;;;4979261;28;20054;-62
2022/07/22 06:59:33;;;;;;;4.18;1.10;;;;;;;;;;4983203;28;20055;-63
2022/07/22 07:02:02;;;;;;;2.92;0.95;;;;;;;;;;4978449;28;20073;-62
2022/07/22 07:04:30;;;;;;;2.60;0.90;;;;;;;;;;4985290;28;20065;-62
2022/07/22 07:06:57;;;;;;;2.15;1.08;;;;;;;;;;4977787;28;20054;-62
2022/07/22 07:09:23;;;;;;;2.50;1.10;;;;;;;;;;4983561;28;20113;-62
2022/07/22 07:11:50;;;;;;;2.65;1.10;;;;;;;;;;4979080;28;20105;-62
2022/07/22 07:14:16;;;;;;;2.20;0.90;;;;;;;;;;4985243;28;20046;-62
2022/07/22 07:16:43;;;;;;;3.35;0.70;;;;;;;;;;4984512;28;20054;-62
2022/07/22 07:19:09;;;;;;;7.28;1.98;;;;;;;;;;4978825;28;20050;-63
2022/07/22 07:21:37;;;;;;;4.82;1.40;;;;;;;;;;4985081;28;20093;-62
2022/07/22 07:24:04;;;;;;;3.58;1.17;;;;;;;;;;4978659;28;20073;-63
2022/07/22 07:26:30;;;;;;;4.03;1.45;;;;;;;;;;4984503;28;20054;-63
2022/07/22 07:28:57;;;;;;;1.80;0.82;;;;;;;;;;4978710;28;20065;-62
2022/07/22 07:31:24;;;;;;;4.70;1.30;;;;;;;;;;4986593;28;20086;-63
2022/07/22 07:33:51;;;;;;;2.35;1.05;;;;;;;;;;4971187;28;20051;-62
2022/07/22 07:36:17;;;;;;;5.00;1.42;;;;;;;;;;4967555;28;20142;-62
2022/07/22 07:38:45;;;;;;;3.58;1.17;;;;;;;;;;4969207;28;20053;-63
2022/07/22 07:41:12;;;;;;;3.35;1.40;;;;;;;;;;4986936;28;20108;-63
2022/07/22 07:43:38;;;;;;;2.60;1.50;;;;;;;;;;4981201;28;20050;-63
2022/07/22 07:46:05;;;;;;;1.00;0.90;;;;;;;;;;5006878;28;20077;-63
2022/07/22 07:48:33;;;;;;;5.47;1.55;;;;;;;;;;4997123;28;20090;-63
2022/07/22 07:51:00;;;;;;;3.38;1.20;;;;;;;;;;4987344;28;20054;-63
2022/07/22 07:53:27;;;;;;;5.80;1.40;;;;;;;;;;4986024;28;20062;-62
2022/07/22 07:55:55;;;;;;;4.30;1.27;;;;;;;;;;4990352;28;20145;-62
2022/07/22 07:58:22;;;;;;;1.40;1.00;;;;;;;;;;4990670;28;20054;-63
2022/07/22 08:00:48;;;;;;;5.65;1.35;;;;;;;;;;4984188;28;20050;-62
2022/07/22 08:03:15;;;;;;;4.30;1.17;;;;;;;;;;4990299;28;20086;-63
2022/07/22 08:05:41;;;;;;;2.35;1.00;;;;;;;;;;4968209;28;20051;-63
2022/07/22 08:08:10;;;;;;;2.00;0.82;;;;;;;;;;4971285;28;20059;-63
2022/07/22 08:10:37;;;;;;;1.35;0.90;;;;;;;;;;4991334;28;20057;-62
2022/07/22 08:13:05;;;;;;;2.45;1.10;;;;;;;;;;5010201;28;20072;-63
2022/07/22 08:15:32;;;;;;;3.10;1.17;;;;;;;;;;5002207;28;20076;-63
2022/07/22 08:17:59;;;;;;;1.55;0.98;;;;;;;;;;5009712;28;20096;-62
2022/07/22 08:20:25;;;;;;;2.30;1.30;;;;;;;;;;4995173;28;20128;-63
2022/07/22 08:22:52;;;;;;;2.83;1.00;;;;;;;;;;4990025;28;20062;-63
2022/07/22 08:25:19;;;;;;;4.80;1.48;;;;;;;;;;4984080;28;20051;-62
2022/07/22 08:27:45;;;;;;;7.15;1.58;;;;;;;;;;4990048;28;20078;-63
2022/07/22 08:30:14;;;;;;;3.83;1.40;;;;;;;;;;4986793;28;20065;-63
2022/07/22 08:32:40;;;;;;;2.70;1.20;;;;;;;;;;5009825;28;20054;-63
2022/07/22 08:35:08;;;;;;;5.32;1.40;;;;;;;;;;5000838;28;20112;-62
2022/07/22 08:37:35;;;;;;;3.97;1.50;;;;;;;;;;4973252;28;20046;-62
2022/07/22 08:40:02;;;;;;;2.92;1.00;;;;;;;;;;4970166;28;20067;-63
2022/07/22 08:42:28;;;;;;;4.55;1.20;;;;;;;;;;5002115;28;20053;-63
2022/07/22 08:44:55;;;;;;;5.18;1.25;;;;;;;;;;5008827;28;20092;-64
2022/07/22 08:47:24;;;;;;;2.88;1.05;;;;;;;;;;4971511;28;20059;-62
2022/07/22 08:49:51;;;;;;;2.75;1.10;;;;;;;;;;4980710;28;20153;-63
2022/07/22 08:52:17;;;;;;;5.82;1.52;;;;;;;;;;4984448;28;20078;-63
2022/07/22 08:54:44;;;;;;;3.15;1.20;;;;;;;;;;4989434;28;20050;-63
2022/07/22 08:57:11;;;;;;;3.17;1.23;;;;;;;;;;4972405;28;20082;-62
2022/07/22 08:59:49;;;;;;;2.17;1.15;;;;;;;;;;4969512;28;20077;-63
2022/07/22 09:02:16;;;;;;;1.87;1.10;;;;;;;;;;4964814;28;20126;-63
2022/07/22 09:04:54;;;;;;;5.55;1.38;;;;;;;;;;4970216;28;20059;-63
2022/07/22 09:07:26;;;;;;;4.00;1.10;;;;;;;;;;4973262;28;20058;-63
2022/07/22 09:09:52;;;;;;;2.67;1.17;;;;;;;;;;4989224;28;20090;-63
2022/07/22 09:12:19;;;;;;;5.60;1.10;;;;;;;;;;4990142;28;20053;-63
2022/07/22 09:14:46;;;;;;;2.28;0.93;;;;;;;;;;5008697;28;20132;-63
2022/07/22 09:17:26;;;;;;;4.07;1.02;;;;;;;;;;4997859;28;20064;-63
2022/07/22 09:19:55;;;;;;;4.20;1.10;;;;;;;;;;4988772;28;20050;-62
2022/07/22 09:22:35;;;;;;;3.20;1.10;;;;;;;;;;4983386;28;20050;-63
2022/07/22 09:25:16;;;;;;;3.17;1.05;;;;;;;;;;4988795;28;20058;-63
2022/07/22 09:27:43;;;;;;;2.10;0.90;;;;;;;;;;4977803;28;20046;-63
2022/07/22 09:30:12;;;;;;;1.52;0.88;;;;;;;;;;4968317;28;20050;-63
2022/07/22 09:32:40;;;;;;;2.92;1.05;;;;;;;;;;4963594;28;20055;-63
2022/07/22 09:35:10;;;;;;;5.32;1.00;;;;;;;;;;4968836;28;20047;-63
2022/07/22 09:37:38;;;;;;;2.80;0.75;;;;;;;;;;4964286;28;20058;-63
2022/07/22 09:40:14;;;;;;;5.85;1.08;;;;;;;;;;4949476;28;20079;-63
2022/07/22 09:42:44;;;;;;;6.65;0.80;;;;;;;;;;4945939;28;20136;-63
2022/07/22 09:45:11;;;;;;;2.33;0.80;;;;;;;;;;4969269;28;20117;-63
2022/07/22 09:47:41;;;;;;;2.10;0.90;;;;;;;;;;4967609;28;20055;-63
2022/07/22 09:50:14;;;;;;;2.38;0.90;;;;;;;;;;4963351;28;20138;-63
2022/07/22 09:52:42;;;;;;;2.80;0.95;;;;;;;;;;4968381;28;20042;-63
2022/07/22 09:55:10;;;;;;;1.77;0.80;;;;;;;;;;4964041;28;20058;-63
2022/07/22 09:57:37;;;;;;;4.55;0.77;;;;;;;;;;4953105;28;21620;-63
2022/07/22 10:00:05;;;;;;;1.38;0.80;;;;;;;;;;4963329;28;20428;-64
2022/07/22 10:02:32;;;;;;;;;;;;;;;;;;4969758;28;20058;-64
2022/07/22 10:04:59;;;;;;;2.65;0.80;;;;;;;;;;4963721;28;19933;-63
2022/07/22 10:07:28;;;;;;;2.20;0.90;;;;;;;;;;4967723;28;20078;-63
2022/07/22 10:09:55;;;;;;;3.10;0.95;;;;;;;;;;4962793;28;20062;-64
2022/07/22 10:12:23;;;;;;;2.35;1.00;;;;;;;;;;4968312;28;20058;-63
2022/07/22 10:14:49;;;;;;;1.27;0.73;;;;;;;;;;4970349;28;20050;-63
2022/07/22 10:17:16;;;;;;;3.42;0.80;;;;;;;;;;4988160;28;20069;-63
2022/07/22 10:19:43;;;;;;;2.60;1.15;;;;;;;;;;4976507;28;20059;-63
2022/07/22 10:22:24;;;;;;;7.38;1.08;;;;;;;;;;4969124;28;20082;-63
2022/07/22 10:25:01;;;;;;;3.65;1.10;;;;;;;;;;4962195;28;20046;-63
2022/07/22 10:27:44;;;;;;;2.38;0.88;;;;;;;;;;4968298;28;20054;-63
2022/07/22 10:30:11;;;;;;;3.10;0.95;;;;;;;;;;4987762;28;20069;-63
2022/07/22 10:32:37;;;;;;;2.58;1.10;;;;;;;;;;4987563;28;20066;-64
2022/07/22 10:35:24;;;;;;;2.92;1.13;;;;;;;;;;4985903;28;20058;-64
2022/07/22 10:37:52;;;;;;;2.17;1.00;;;;;;;;;;5007496;28;20072;-63
2022/07/22 10:40:21;;;;;;;2.92;0.90;;;;;;;;;;4996275;28;20061;-63
2022/07/22 10:43:14;;;;;;;2.05;1.00;;;;;;;;;;4981520;28;20057;-63
2022/07/22 10:45:43;;;;;;;1.20;0.80;;;;;;;;;;4932856;28;20047;-63
2022/07/22 10:48:11;;;;;;;2.20;0.88;;;;;;;;;;4985447;28;20049;-64
2022/07/22 10:50:41;;;;;;;4.80;1.33;;;;;;;;;;4978404;28;20057;-63
2022/07/22 10:53:09;;;;;;;1.95;0.88;;;;;;;;;;4975216;28;20046;-64
2022/07/22 10:55:37;;;;;;;3.33;1.20;;;;;;;;;;4976501;28;20108;-62
2022/07/22 10:58:22;;;;;;;3.80;0.90;;;;;;;;;;4984936;28;20111;-63
2022/07/22 11:00:49;;;;;;;1.95;0.90;;;;;;;;;;4978081;28;20068;-63
2022/07/22 11:03:24;;;;;;;1.63;0.98;;;;;;;;;;4985970;28;20059;-63
2022/07/22 11:05:51;;;;;;;3.58;1.05;;;;;;;;;;4980080;28;20054;-63
2022/07/22 11:08:18;;;;;;;2.03;0.80;;;;;;;;;;4983602;28;20090;-63
2022/07/22 11:10:49;;;;;;;2.10;1.00;;;;;;;;;;4984169;28;20074;-63
2022/07/22 11:13:31;;;;;;;3.17;0.93;;;;;;;;;;4979413;28;20133;-63
2022/07/22 11:15:57;;;;;;;2.53;0.88;;;;;;;;;;4985026;28;20062;-63
2022/07/22 11:18:24;;;;;;;2.17;0.80;;;;;;;;;;4978962;28;20057;-63
2022/07/22 11:20:50;;;;;;;4.22;1.10;;;;;;;;;;4984450;28;20077;-63
2022/07/22 11:23:17;;;;;;;1.52;0.80;;;;;;;;;;4977252;28;20140;-63
2022/07/22 11:25:43;;;;;;;2.30;0.80;;;;;;;;;;4984542;28;20085;-63
2022/07/22 11:28:11;;;;;;;6.22;0.90;;;;;;;;;;4981439;28;20058;-63
2022/07/22 11:30:38;;;;;;;1.98;0.90;;;;;;;;;;4968920;28;20101;-63
2022/07/22 11:33:04;;;;;;;1.52;0.90;;;;;;;;;;4962294;28;20074;-63
2022/07/22 11:35:31;;;;;;;1.20;0.70;;;;;;;;;;4972227;28;20054;-63
2022/07/22 11:38:00;;;;;;;4.30;1.00;;;;;;;;;;4965939;28;20050;-63
2022/07/22 11:40:32;;;;;;;3.90;1.00;;;;;;;;;;4971246;28;20063;-64
2022/07/22 11:43:02;;;;;;;2.95;1.13;;;;;;;;;;4959584;28;20043;-63
2022/07/22 11:45:30;;;;;;;2.67;0.95;;;;;;;;;;4952799;28;20066;-63
2022/07/22 11:47:57;;;;;;;1.70;0.98;;;;;;;;;;4955106;28;20046;-63
2022/07/22 11:50:30;;;;;;;2.78;1.10;;;;;;;;;;4982858;28;20072;-63
2022/07/22 11:52:57;;;;;;;2.17;0.93;;;;;;;;;;4983438;28;20055;-63
2022/07/22 11:55:24;;;;;;;1.83;0.88;;;;;;;;;;4972856;28;20055;-63
2022/07/22 11:57:50;;;;;;;4.07;1.05;;;;;;;;;;4969654;28;20063;-63
2022/07/22 12:00:19;;;;;;;5.15;1.30;;;;;;;;;;4969404;28;20133;-63
2022/07/22 12:02:47;;;;;;;1.45;0.90;;;;;;;;;;4971082;28;20058;-63
2022/07/22 12:05:13;;;;;;;5.95;1.48;;;;;;;;;;4965312;28;20051;-63
2022/07/22 12:07:40;;;;;;;4.53;1.10;;;;;;;;;;4971595;28;20119;-63
2022/07/22 12:10:10;;;;;;;4.75;1.40;;;;;;;;;;4950208;28;20070;-63
2022/07/22 12:12:40;;;;;;;6.07;1.23;;;;;;;;;;4951369;28;20130;-63
2022/07/22 12:15:11;;;;;;;2.65;1.13;;;;;;;;;;4958251;28;20063;-63
2022/07/22 12:17:38;;;;;;;2.92;0.90;;;;;;;;;;4971438;28;20055;-63
2022/07/22 12:20:12;;;;;;;4.57;1.25;;;;;;;;;;4969078;28;20133;-63
2022/07/22 12:22:45;;;;;;;1.95;1.10;;;;;;;;;;4990915;28;20065;-63
2022/07/22 12:25:11;;;;;;;4.13;1.63;;;;;;;;;;4973527;28;20054;-63
2022/07/22 12:27:38;;;;;;;5.68;1.67;;;;;;;;;;4971709;28;20058;-63
2022/07/22 12:30:12;;;;;;;5.53;1.40;;;;;;;;;;4981659;28;20074;-63
2022/07/22 12:32:47;;;;;;;6.57;2.17;;;;;;;;;;4990367;28;20058;-64
2022/07/22 12:35:17;;;;;;;5.50;1.27;;;;;;;;;;4996449;28;20073;-63
2022/07/22 12:37:45;;;;;;;3.65;1.10;;;;;;;;;;4988703;28;20069;-64
2022/07/22 12:40:14;;;;;;;4.70;1.60;;;;;;;;;;4978453;28;20090;-63
2022/07/22 12:42:41;;;;;;;5.47;2.13;;;;;;;;;;4970612;28;20074;-64
2022/07/22 12:45:10;;;;;;;3.53;1.45;;;;;;;;;;4966168;28;20079;-63
2022/07/22 12:47:47;;;;;;;4.60;1.95;;;;;;;;;;4970612;28;20058;-63
2022/07/22 12:50:23;;;;;;;3.88;1.52;;;;;;;;;;4983303;28;20054;-63
2022/07/22 12:52:50;;;;;;;4.97;1.60;;;;;;;;;;4989801;28;20137;-67
2022/07/22 12:55:16;;;;;;;2.65;1.40;;;;;;;;;;4983768;28;20061;-70
2022/07/22 12:57:43;;;;;;;2.75;1.23;;;;;;;;;;5008090;28;20056;-72
2022/07/22 13:00:10;;;;;;;3.10;1.30;;;;;;;;;;4995148;28;20129;-72
2022/07/22 13:02:37;;;;;;;4.90;1.08;;;;;;;;;;4983536;28;20062;-67
2022/07/22 13:05:04;;;;;;;7.25;1.60;;;;;;;;;;4989829;28;20054;-72
2022/07/22 13:07:32;;;;;;;1.88;1.00;;;;;;;;;;4983286;28;20072;-67
2022/07/22 13:09:58;;;;;;;4.47;1.40;;;;;;;;;;4989720;28;20062;-70
2022/07/22 13:12:25;;;;;;;3.13;1.15;;;;;;;;;;4983595;28;20112;-66
2022/07/22 13:14:51;;;;;;;3.97;1.17;;;;;;;;;;4989755;28;20050;-69
2022/07/22 13:17:19;;;;;;;4.88;1.20;;;;;;;;;;4992848;28;20053;-66
2022/07/22 13:19:46;;;;;;;2.83;1.13;;;;;;;;;;5007268;28;20147;-66
2022/07/22 13:22:12;;;;;;;3.92;1.10;;;;;;;;;;4983471;28;20149;-66
2022/07/22 13:24:40;;;;;;;5.32;1.65;;;;;;;;;;4990789;28;20057;-68
2022/07/22 13:27:08;;;;;;;8.57;2.05;;;;;;;;;;4982729;28;20138;-66
2022/07/22 13:29:34;;;;;;;4.40;1.52;;;;;;;;;;5007584;28;20090;-70
2022/07/22 13:32:01;;;;;;;2.90;1.48;;;;;;;;;;4992748;28;20105;-68
2022/07/22 13:34:27;;;;;;;4.25;1.52;;;;;;;;;;4984772;28;20093;-70
2022/07/22 13:36:54;;;;;;;7.30;1.15;;;;;;;;;;4983885;28;20127;-68
2022/07/22 13:39:21;;;;;;;8.15;1.90;;;;;;;;;;4988899;28;20112;-72
2022/07/22 13:41:49;;;;;;;4.10;1.23;;;;;;;;;;4988655;28;20062;-72
2022/07/22 13:44:16;;;;;;;;;;;;;;;;;;4967098;28;20051;-66
2022/07/22 13:46:43;;;;;;;4.75;1.00;;;;;;;;;;4969351;28;19922;-67
2022/07/22 13:49:10;;;;;;;4.30;1.70;;;;;;;;;;4979122;28;20058;-67
2022/07/22 13:51:36;;;;;;;7.80;2.00;;;;;;;;;;4983060;28;20050;-68
2022/07/22 13:54:04;;;;;;;2.50;1.20;;;;;;;;;;4983235;28;20063;-65
2022/07/22 13:56:31;;;;;;;4.55;1.30;;;;;;;;;;4989098;28;20076;-67
2022/07/22 13:59:00;;;;;;;3.35;1.48;;;;;;;;;;4982365;28;20104;-66
2022/07/22 14:01:26;;;;;;;3.55;1.60;;;;;;;;;;4984871;28;20107;-66
2022/07/22 14:03:53;;;;;;;5.72;2.28;;;;;;;;;;4982467;28;20070;-68
2022/07/22 14:06:20;;;;;;;9.32;2.10;;;;;;;;;;4988120;28;20050;-67
2022/07/22 14:08:46;;;;;;;5.88;1.27;;;;;;;;;;4975746;28;20043;-67
2022/07/22 14:11:13;;;;;;;3.85;1.30;;;;;;;;;;4968595;28;20061;-66
2022/07/22 14:13:39;;;;;;;3.78;1.38;;;;;;;;;;4964660;28;20043;-67
2022/07/22 14:18:54;;;;;;;7.13;1.70;;;;;;;;;;4964095;28;20058;-66
2022/07/22 14:21:20;;;;;;;15.50;3.60;;;;;;;;;;4982788;28;20058;-67
2022/07/22 14:23:47;;;;;;;8.68;1.98;;;;;;;;;;4982527;28;20082;-66
2022/07/22 14:26:14;;;;;;;4.88;1.58;;;;;;;;;;5007378;28;20061;-67
2022/07/22 14:28:40;;;;;;;7.50;1.85;;;;;;;;;;5003814;28;20053;-66
2022/07/22 14:31:08;;;;;;;5.38;1.70;;;;;;;;;;5005054;28;20061;-66
2022/07/22 14:33:35;;;;;;;8.40;1.90;;;;;;;;;;5001058;28;20057;-68
2022/07/22 14:36:02;;;;;;;5.65;2.20;;;;;;;;;;4983612;28;20046;-67
2022/07/22 14:38:29;;;;;;;7.78;1.90;;;;;;;;;;4987975;28;20074;-67
2022/07/22 14:40:55;;;;;;;4.13;1.40;;;;;;;;;;4980948;28;20069;-67
2022/07/22 14:43:22;;;;;;;6.80;1.40;;;;;;;;;;4987834;28;20054;-69
2022/07/22 14:45:49;;;;;;;6.15;2.45;;;;;;;;;;4981331;28;20053;-67
2022/07/22 14:48:18;;;;;;;6.10;1.60;;;;;;;;;;4987483;28;20058;-67